Time;durP1;ratioP1;P1;durP2;ratioP2;P2;SDS_P1;SDS_P2;PMS_P1;PMS_P2;Temp;Humidity;BMP_temperature;BMP_pressure;BME280_temperature;BME280_humidity;BME280_pressure;Samples;Min_cycle;Max_cycle;Signal;HPM_P1;HPM_P2
2024/01/08 00:00:56;;;;;;;8.80;6.27;;;-1.10;99.90;;;;;;4983433;28;20556;-57
2024/01/08 00:03:21;;;;;;;9.10;6.20;;;-1.20;99.90;;;;;;4983586;28;20186;-55
2024/01/08 00:05:48;;;;;;;9.90;6.80;;;-1.10;99.90;;;;;;4985119;28;20329;-56
2024/01/08 00:08:14;;;;;;;9.20;6.20;;;-1.10;99.90;;;;;;4986566;28;20274;-57
2024/01/08 00:10:40;;;;;;;11.37;6.70;;;-1.10;99.90;;;;;;4984334;28;20449;-56
2024/01/08 00:13:06;;;;;;;9.30;7.17;;;-1.20;99.90;;;;;;4981835;28;20439;-55
2024/01/08 00:15:32;;;;;;;10.73;6.50;;;-1.20;99.90;;;;;;4983775;28;20462;-56
2024/01/08 00:17:57;;;;;;;8.57;6.37;;;-1.20;99.90;;;;;;4985357;28;20454;-57
2024/01/08 00:20:23;;;;;;;9.57;6.10;;;-1.20;99.90;;;;;;4985333;28;20182;-56
2024/01/08 00:22:48;;;;;;;11.03;6.97;;;-1.30;99.90;;;;;;4981153;28;20243;-57
2024/01/08 00:25:14;;;;;;;9.00;6.80;;;-1.30;99.90;;;;;;4986947;28;20201;-55
2024/01/08 00:27:40;;;;;;;8.20;6.50;;;-1.20;99.90;;;;;;4982410;28;20185;-56
2024/01/08 00:30:06;;;;;;;9.70;6.20;;;-1.30;99.90;;;;;;4981426;28;20187;-56
2024/01/08 00:32:32;;;;;;;8.00;6.10;;;-1.30;99.90;;;;;;4981847;28;21013;-56
2024/01/08 00:34:58;;;;;;;8.07;6.07;;;-1.30;99.90;;;;;;4982733;28;20432;-58
2024/01/08 00:37:24;;;;;;;8.80;6.70;;;-1.30;99.90;;;;;;4985700;28;20195;-56
2024/01/08 00:39:49;;;;;;;10.67;6.57;;;-1.30;99.90;;;;;;4984434;28;20526;-57
2024/01/08 00:42:15;;;;;;;9.90;6.53;;;-1.40;99.90;;;;;;4985834;28;20179;-56
2024/01/08 00:44:40;;;;;;;9.00;6.73;;;-1.40;99.90;;;;;;4989059;28;20197;-56
2024/01/08 00:47:06;;;;;;;8.87;6.00;;;-1.40;99.90;;;;;;4988403;28;20183;-57
2024/01/08 00:49:31;;;;;;;8.83;6.10;;;-1.40;99.90;;;;;;4986865;28;20184;-57
2024/01/08 00:51:57;;;;;;;8.70;6.37;;;-1.40;99.90;;;;;;4987272;28;20183;-56
2024/01/08 00:54:23;;;;;;;8.67;5.90;;;-1.50;99.90;;;;;;4986896;28;20678;-56
2024/01/08 00:56:48;;;;;;;7.43;5.30;;;-1.50;99.90;;;;;;4987963;28;20204;-57
2024/01/08 00:59:14;;;;;;;7.20;5.47;;;-1.50;99.90;;;;;;4988186;28;21098;-57
2024/01/08 01:01:39;;;;;;;12.13;6.50;;;-1.60;99.90;;;;;;4988435;28;20307;-56
2024/01/08 01:04:05;;;;;;;8.00;5.87;;;-1.60;99.90;;;;;;4984275;28;20232;-56
2024/01/08 01:06:30;;;;;;;7.30;5.77;;;-1.60;99.90;;;;;;4988906;28;20231;-55
2024/01/08 01:08:56;;;;;;;12.60;6.57;;;-1.60;99.90;;;;;;4986088;28;20183;-56
2024/01/08 01:11:21;;;;;;;8.40;6.47;;;-1.60;99.90;;;;;;4984851;28;20234;-56
2024/01/08 01:13:47;;;;;;;8.03;5.90;;;-1.60;99.90;;;;;;4989784;28;20191;-56
2024/01/08 01:16:13;;;;;;;9.40;6.10;;;-1.60;99.90;;;;;;4983503;28;20235;-55
2024/01/08 01:18:38;;;;;;;9.40;5.53;;;-1.60;99.90;;;;;;4987633;28;20234;-57
2024/01/08 01:21:04;;;;;;;8.63;6.47;;;-1.60;99.90;;;;;;4988211;28;20496;-57
2024/01/08 01:23:30;;;;;;;8.40;6.40;;;-1.60;99.90;;;;;;4990005;28;20229;-56
2024/01/08 01:25:55;;;;;;;8.43;5.60;;;-1.60;99.90;;;;;;4986536;28;20203;-56
2024/01/08 01:28:21;;;;;;;9.20;6.00;;;-1.60;99.90;;;;;;4984388;28;20191;-56
2024/01/08 01:30:47;;;;;;;9.67;6.13;;;-1.60;99.90;;;;;;4984540;28;20278;-57
2024/01/08 01:33:12;;;;;;;8.17;5.90;;;-1.70;99.90;;;;;;4986358;28;20270;-54
2024/01/08 01:35:38;;;;;;;8.73;5.70;;;-1.70;99.90;;;;;;4983969;28;20673;-56
2024/01/08 01:38:03;;;;;;;8.10;6.47;;;-1.70;99.90;;;;;;4989449;28;20257;-56
2024/01/08 01:40:29;;;;;;;10.90;6.80;;;-1.70;99.90;;;;;;4985915;28;20684;-56
2024/01/08 01:42:55;;;;;;;13.47;6.20;;;-1.70;99.90;;;;;;4988887;28;20169;-57
2024/01/08 01:45:24;;;;;;;10.57;6.90;;;-1.80;99.90;;;;;;4989289;28;20199;-57
2024/01/08 01:47:55;;;;;;;9.40;6.83;;;-1.80;99.90;;;;;;4987171;28;20197;-57
2024/01/08 01:50:21;;;;;;;7.33;6.60;;;-1.80;99.90;;;;;;4984196;28;20489;-57
2024/01/08 01:52:47;;;;;;;8.43;5.93;;;-1.80;99.90;;;;;;4984931;28;20556;-56
2024/01/08 01:55:14;;;;;;;8.73;5.97;;;-1.80;99.90;;;;;;4986235;28;20453;-57
2024/01/08 01:57:41;;;;;;;7.90;6.10;;;-1.80;99.90;;;;;;4983848;28;20466;-56
2024/01/08 02:00:08;;;;;;;7.63;5.83;;;-1.80;99.90;;;;;;4979051;28;20428;-56
2024/01/08 02:02:34;;;;;;;8.03;5.77;;;-1.80;99.90;;;;;;4984025;28;20438;-57
2024/01/08 02:04:59;;;;;;;7.37;6.13;;;-1.80;99.90;;;;;;4987908;28;20826;-56
2024/01/08 02:07:25;;;;;;;8.57;6.30;;;-1.80;99.90;;;;;;4987059;28;20422;-56
2024/01/08 02:09:51;;;;;;;9.33;5.50;;;-1.80;99.90;;;;;;4985400;28;20182;-58
2024/01/08 02:12:17;;;;;;;9.70;5.90;;;-1.80;99.90;;;;;;4983282;28;20230;-56
2024/01/08 02:14:44;;;;;;;9.23;6.30;;;-1.90;99.90;;;;;;4984939;28;20206;-57
2024/01/08 02:17:09;;;;;;;8.00;5.77;;;-1.90;99.90;;;;;;4986425;28;20485;-57
2024/01/08 02:19:35;;;;;;;10.20;6.37;;;-1.90;99.90;;;;;;4984902;28;20441;-56
2024/01/08 02:22:01;;;;;;;8.77;6.77;;;-1.90;99.90;;;;;;4987696;28;20182;-56
2024/01/08 02:24:28;;;;;;;9.93;6.03;;;-1.90;99.90;;;;;;4986863;28;20226;-56
2024/01/08 02:26:56;;;;;;;10.97;6.83;;;-1.80;99.90;;;;;;4988274;28;20289;-57
2024/01/08 02:29:24;;;;;;;7.30;5.70;;;-1.80;99.90;;;;;;4985451;28;20429;-57
2024/01/08 02:31:50;;;;;;;9.87;6.77;;;-1.90;99.90;;;;;;4987584;28;20878;-56
2024/01/08 02:34:15;;;;;;;7.50;6.17;;;-1.90;99.90;;;;;;4985838;28;20506;-55
2024/01/08 02:36:41;;;;;;;9.87;6.60;;;-1.80;99.90;;;;;;4985370;28;20210;-57
2024/01/08 02:39:06;;;;;;;10.07;6.33;;;-1.90;99.90;;;;;;4986093;28;20600;-56
2024/01/08 02:41:32;;;;;;;7.50;5.93;;;-1.90;99.90;;;;;;4986239;28;20198;-57
2024/01/08 02:43:57;;;;;;;9.00;6.60;;;-1.90;99.90;;;;;;4986056;28;20728;-58
2024/01/08 02:46:23;;;;;;;10.03;6.30;;;-2.00;99.90;;;;;;4986167;28;20206;-55
2024/01/08 02:48:49;;;;;;;8.03;5.60;;;-2.00;99.90;;;;;;4987087;28;20191;-57
2024/01/08 02:51:15;;;;;;;7.13;5.23;;;-2.00;99.90;;;;;;4984760;28;20602;-55
2024/01/08 02:53:40;;;;;;;10.67;6.47;;;-2.00;99.90;;;;;;4987606;28;20185;-58
2024/01/08 02:56:06;;;;;;;7.73;5.40;;;-2.00;99.90;;;;;;4986609;28;20525;-58
2024/01/08 02:58:32;;;;;;;6.10;4.80;;;-2.10;99.90;;;;;;4980819;28;20783;-57
2024/01/08 03:00:59;;;;;;;8.70;6.30;;;-2.10;99.90;;;;;;4981337;28;20865;-57
2024/01/08 03:03:25;;;;;;;6.97;5.67;;;-2.00;99.90;;;;;;4995702;28;20186;-56
2024/01/08 03:05:51;;;;;;;8.10;5.63;;;-2.00;99.90;;;;;;4991811;28;20478;-56
2024/01/08 03:08:16;;;;;;;8.47;5.77;;;-2.10;99.90;;;;;;4997585;28;20457;-56
2024/01/08 03:10:42;;;;;;;6.27;5.00;;;-2.10;99.90;;;;;;4988227;28;20183;-56
2024/01/08 03:13:08;;;;;;;7.60;5.33;;;-2.20;99.90;;;;;;4982403;28;20197;-56
2024/01/08 03:15:33;;;;;;;7.93;5.77;;;-2.20;99.90;;;;;;4985269;28;20210;-58
2024/01/08 03:17:59;;;;;;;8.53;5.27;;;-2.20;99.90;;;;;;4987362;28;20213;-55
2024/01/08 03:20:24;;;;;;;9.13;6.43;;;-2.10;99.90;;;;;;4986220;28;20261;-56
2024/01/08 03:22:52;;;;;;;12.23;5.67;;;-2.10;99.90;;;;;;4976336;28;20270;-57
2024/01/08 03:25:18;;;;;;;8.33;5.97;;;-2.20;99.90;;;;;;4985329;28;20205;-55
2024/01/08 03:27:44;;;;;;;6.57;5.20;;;-2.10;99.90;;;;;;4985521;28;20632;-56
2024/01/08 03:30:10;;;;;;;8.87;5.40;;;-2.20;99.90;;;;;;4978342;28;20524;-55
2024/01/08 03:32:35;;;;;;;7.03;5.47;;;-2.20;99.90;;;;;;4986856;28;20418;-56
2024/01/08 03:35:01;;;;;;;5.67;4.63;;;-2.20;99.90;;;;;;4983658;28;20465;-57
2024/01/08 03:37:27;;;;;;;9.10;5.93;;;-2.30;99.90;;;;;;4980033;28;20199;-56
2024/01/08 03:39:52;;;;;;;7.50;5.60;;;-2.20;99.90;;;;;;4988049;28;20175;-56
2024/01/08 03:42:18;;;;;;;8.10;5.10;;;-2.20;99.90;;;;;;4987302;28;20667;-56
2024/01/08 03:44:43;;;;;;;9.03;5.00;;;-2.30;99.90;;;;;;4987163;28;20278;-56
2024/01/08 03:47:10;;;;;;;7.47;5.03;;;-2.30;99.90;;;;;;4984782;28;20235;-56
2024/01/08 03:49:36;;;;;;;12.33;5.53;;;-2.30;99.90;;;;;;4983846;28;20194;-57
2024/01/08 03:52:02;;;;;;;6.80;4.50;;;-2.40;99.90;;;;;;4984657;28;20455;-57
2024/01/08 03:54:27;;;;;;;5.93;4.57;;;-2.40;99.90;;;;;;4985838;28;20179;-56
2024/01/08 03:56:53;;;;;;;7.10;4.50;;;-2.50;99.90;;;;;;4982440;28;20230;-57
2024/01/08 03:59:18;;;;;;;6.90;5.10;;;-2.50;99.90;;;;;;4982963;28;20664;-57
2024/01/08 04:01:45;;;;;;;7.17;5.30;;;-2.50;99.90;;;;;;4984834;28;20190;-56
2024/01/08 04:04:11;;;;;;;9.97;5.30;;;-2.50;99.90;;;;;;4982733;28;20207;-55
2024/01/08 04:06:37;;;;;;;8.07;5.50;;;-2.50;99.90;;;;;;4984217;28;20490;-57
2024/01/08 04:09:03;;;;;;;4.93;4.30;;;-2.50;99.90;;;;;;4980735;28;20422;-56
2024/01/08 04:11:29;;;;;;;6.37;5.20;;;-2.50;99.90;;;;;;4987518;28;20901;-57
2024/01/08 04:13:55;;;;;;;7.07;4.90;;;-2.50;99.90;;;;;;4983156;28;20452;-58
2024/01/08 04:16:21;;;;;;;7.27;4.80;;;-2.50;99.90;;;;;;4981667;28;20203;-57
2024/01/08 04:18:46;;;;;;;7.73;4.83;;;-2.50;99.90;;;;;;4987078;28;20230;-57
2024/01/08 04:21:18;;;;;;;7.50;5.17;;;-2.50;99.90;;;;;;4983444;28;20202;-56
2024/01/08 04:23:44;;;;;;;6.70;5.23;;;-2.50;99.90;;;;;;4987657;28;20194;-55
2024/01/08 04:26:18;;;;;;;5.50;4.50;;;-2.50;99.90;;;;;;4988056;28;20445;-57
2024/01/08 04:28:44;;;;;;;8.53;6.10;;;-2.50;99.90;;;;;;4987503;28;20193;-56
2024/01/08 04:31:20;;;;;;;9.93;5.60;;;-2.50;99.90;;;;;;4988038;28;20458;-56
2024/01/08 04:33:46;;;;;;;6.77;4.37;;;-2.50;99.90;;;;;;4989618;28;20206;-56
2024/01/08 04:36:13;;;;;;;6.07;5.00;;;-2.60;99.90;;;;;;4986242;28;20457;-58
2024/01/08 04:38:39;;;;;;;6.07;4.47;;;-2.50;99.90;;;;;;4990545;28;20461;-56
2024/01/08 04:41:04;;;;;;;8.30;5.73;;;-2.60;99.90;;;;;;4986440;28;20940;-58
2024/01/08 04:43:30;;;;;;;8.60;5.33;;;-2.60;99.90;;;;;;4982253;28;20426;-56
2024/01/08 04:45:55;;;;;;;7.57;5.30;;;-2.60;99.90;;;;;;4987238;28;20780;-57
2024/01/08 04:48:21;;;;;;;7.40;5.37;;;-2.50;99.90;;;;;;4983390;28;20187;-55
2024/01/08 04:50:47;;;;;;;6.77;5.10;;;-2.50;99.90;;;;;;4987472;28;20188;-55
2024/01/08 04:53:12;;;;;;;7.40;5.03;;;-2.50;99.90;;;;;;4986839;28;20225;-57
2024/01/08 04:55:38;;;;;;;7.70;5.30;;;-2.50;99.90;;;;;;4985306;28;20212;-56
2024/01/08 04:58:05;;;;;;;7.23;5.10;;;-2.60;99.90;;;;;;4985418;28;20711;-57
2024/01/08 05:00:31;;;;;;;7.60;5.40;;;-2.60;99.90;;;;;;4989913;28;20418;-56
2024/01/08 05:02:57;;;;;;;7.80;5.13;;;-2.60;99.90;;;;;;4974312;28;20438;-56
2024/01/08 05:05:22;;;;;;;8.37;4.97;;;-2.60;99.90;;;;;;4988136;28;20197;-55
2024/01/08 05:07:48;;;;;;;7.83;5.37;;;-2.70;99.90;;;;;;4985760;28;20179;-61
2024/01/08 05:10:14;;;;;;;8.20;5.57;;;-2.60;99.90;;;;;;4984897;28;20183;-60
2024/01/08 05:12:40;;;;;;;6.53;5.17;;;-2.60;99.90;;;;;;4981085;28;20222;-58
2024/01/08 05:15:05;;;;;;;6.83;5.23;;;-2.60;99.90;;;;;;4979696;28;20465;-57
2024/01/08 05:17:31;;;;;;;7.00;5.10;;;-2.70;99.90;;;;;;4982254;28;20215;-56
2024/01/08 05:19:57;;;;;;;10.43;5.07;;;-2.70;99.90;;;;;;4985990;28;20429;-56
2024/01/08 05:22:23;;;;;;;6.00;5.20;;;-2.70;99.90;;;;;;4982339;28;20279;-53
2024/01/08 05:24:48;;;;;;;7.63;5.37;;;-2.70;99.90;;;;;;4979939;28;20571;-56
2024/01/08 05:27:14;;;;;;;6.63;4.67;;;-2.70;99.90;;;;;;4978224;28;20714;-56
2024/01/08 05:29:39;;;;;;;6.13;4.00;;;-2.70;99.90;;;;;;4981067;28;20182;-56
2024/01/08 05:32:05;;;;;;;5.50;4.33;;;-2.70;99.90;;;;;;4981149;28;20510;-57
2024/01/08 05:34:32;;;;;;;6.80;4.37;;;-2.70;99.90;;;;;;4977070;28;20175;-53
2024/01/08 05:36:57;;;;;;;6.27;4.70;;;-2.80;99.90;;;;;;4986875;28;20457;-54
2024/01/08 05:39:23;;;;;;;4.47;4.07;;;-2.80;99.90;;;;;;4984989;28;20481;-58
2024/01/08 05:41:48;;;;;;;5.37;4.47;;;-2.80;99.90;;;;;;4985251;28;20182;-56
2024/01/08 05:44:14;;;;;;;5.70;4.40;;;-2.90;99.90;;;;;;4980763;28;20195;-56
2024/01/08 05:46:43;;;;;;;6.70;4.37;;;-2.90;99.90;;;;;;4988710;28;20207;-58
2024/01/08 05:49:09;;;;;;;5.27;4.13;;;-2.90;99.90;;;;;;4986349;28;20190;-57
2024/01/08 05:51:36;;;;;;;5.40;4.23;;;-3.00;99.90;;;;;;4989471;28;20501;-57
2024/01/08 05:54:02;;;;;;;9.03;4.50;;;-2.90;99.90;;;;;;4989370;28;20509;-57
2024/01/08 05:56:28;;;;;;;6.30;4.97;;;-2.90;99.90;;;;;;4984980;28;20485;-57
2024/01/08 05:58:54;;;;;;;5.70;4.30;;;-3.00;99.90;;;;;;4984734;28;20892;-58
2024/01/08 06:01:20;;;;;;;6.07;4.47;;;-3.00;99.90;;;;;;4983702;28;20193;-58
2024/01/08 06:03:45;;;;;;;6.13;4.80;;;-3.00;99.90;;;;;;4986975;28;20301;-58
2024/01/08 06:06:12;;;;;;;6.03;5.13;;;-3.00;99.90;;;;;;4986247;28;20541;-58
2024/01/08 06:08:40;;;;;;;6.20;4.93;;;-3.00;99.90;;;;;;4987213;28;20624;-58
2024/01/08 06:11:06;;;;;;;4.60;4.20;;;-3.10;99.90;;;;;;4987755;28;20441;-56
2024/01/08 06:13:32;;;;;;;10.97;5.20;;;-3.10;99.90;;;;;;4985542;28;20537;-57
2024/01/08 06:15:58;;;;;;;6.23;4.70;;;-3.10;99.90;;;;;;4988410;28;20957;-58
2024/01/08 06:18:24;;;;;;;5.90;4.70;;;-3.10;99.90;;;;;;4979997;28;20462;-58
2024/01/08 06:20:52;;;;;;;6.93;4.93;;;-3.10;99.90;;;;;;4984834;28;20443;-59
2024/01/08 06:23:17;;;;;;;5.27;4.20;;;-3.10;99.90;;;;;;4983367;28;20430;-58
2024/01/08 06:25:43;;;;;;;5.17;4.10;;;-3.10;99.90;;;;;;4985265;28;20480;-57
2024/01/08 06:28:08;;;;;;;5.47;4.03;;;-3.20;99.90;;;;;;4982799;28;20174;-58
2024/01/08 06:30:34;;;;;;;4.83;4.10;;;-3.20;99.90;;;;;;4984641;28;20174;-57
2024/01/08 06:33:00;;;;;;;5.20;4.50;;;-3.20;99.90;;;;;;4987141;28;20179;-58
2024/01/08 06:35:25;;;;;;;5.60;4.80;;;-3.20;99.90;;;;;;4988163;28;20202;-57
2024/01/08 06:37:51;;;;;;;5.70;3.87;;;-3.20;99.90;;;;;;4983922;28;20218;-57
2024/01/08 06:40:16;;;;;;;6.67;4.60;;;-3.20;99.90;;;;;;4985379;28;20177;-57
2024/01/08 06:42:42;;;;;;;12.60;6.63;;;-3.20;99.90;;;;;;4985991;28;20928;-58
2024/01/08 06:45:08;;;;;;;5.53;4.30;;;-3.20;99.90;;;;;;4984685;28;20301;-57
2024/01/08 06:47:34;;;;;;;6.50;4.30;;;-3.20;99.90;;;;;;4984968;28;20181;-57
2024/01/08 06:50:00;;;;;;;7.83;4.50;;;-3.20;99.90;;;;;;4986053;28;20526;-57
2024/01/08 06:52:25;;;;;;;7.50;4.63;;;-3.20;99.90;;;;;;4987330;28;20679;-59
2024/01/08 06:54:51;;;;;;;9.50;4.30;;;-3.20;99.90;;;;;;4985625;28;20186;-57
2024/01/08 06:57:17;;;;;;;4.73;4.27;;;-3.20;99.90;;;;;;4983581;28;20798;-57
2024/01/08 06:59:43;;;;;;;6.23;4.53;;;-3.30;99.90;;;;;;4984857;28;20440;-57
2024/01/08 07:02:08;;;;;;;5.03;4.40;;;-3.30;99.90;;;;;;4983053;28;20183;-57
2024/01/08 07:04:34;;;;;;;5.90;4.40;;;-3.30;99.90;;;;;;4987142;28;20178;-59
2024/01/08 07:06:59;;;;;;;5.93;4.50;;;-3.30;99.90;;;;;;4986293;28;20612;-59
2024/01/08 07:09:25;;;;;;;6.40;3.77;;;-3.30;99.90;;;;;;4983356;28;20174;-57
2024/01/08 07:11:51;;;;;;;13.43;4.33;;;-3.30;99.90;;;;;;4987960;28;20739;-59
2024/01/08 07:14:17;;;;;;;9.70;5.10;;;-3.30;99.90;;;;;;4988202;28;20895;-58
2024/01/08 07:16:42;;;;;;;6.77;4.77;;;-3.30;99.90;;;;;;4985562;28;20202;-61
2024/01/08 07:19:08;;;;;;;5.30;4.30;;;-3.30;99.90;;;;;;4985568;28;20240;-57
2024/01/08 07:21:34;;;;;;;4.97;3.53;;;-3.20;99.90;;;;;;4981625;28;20178;-58
2024/01/08 07:23:59;;;;;;;5.27;4.17;;;-3.20;99.90;;;;;;4989647;28;20184;-57
2024/01/08 07:26:25;;;;;;;5.53;4.10;;;-3.20;99.90;;;;;;4987648;28;20195;-58
2024/01/08 07:28:51;;;;;;;5.60;4.03;;;-3.20;99.90;;;;;;4980756;28;20188;-59
2024/01/08 07:31:16;;;;;;;8.30;4.30;;;-3.20;99.90;;;;;;4986833;28;20656;-58
2024/01/08 07:33:42;;;;;;;5.60;4.10;;;-3.20;99.90;;;;;;4986030;28;20202;-59
2024/01/08 07:36:08;;;;;;;6.03;3.80;;;-3.20;99.90;;;;;;4980348;28;20263;-57
2024/01/08 07:38:34;;;;;;;5.23;3.97;;;-3.20;99.90;;;;;;4988990;28;20478;-57
2024/01/08 07:41:00;;;;;;;5.57;4.23;;;-3.20;99.90;;;;;;4995151;28;20422;-57
2024/01/08 07:43:26;;;;;;;5.43;3.90;;;-3.20;99.90;;;;;;4996800;28;20672;-58
2024/01/08 07:45:53;;;;;;;5.43;4.00;;;-3.20;99.90;;;;;;5000718;28;20445;-57
2024/01/08 07:48:19;;;;;;;6.77;4.57;;;-3.20;99.90;;;;;;4998812;28;20445;-57
2024/01/08 07:50:45;;;;;;;6.27;4.47;;;-3.10;99.90;;;;;;4989412;28;20427;-57
2024/01/08 07:53:11;;;;;;;5.03;4.43;;;-3.10;99.90;;;;;;4984456;28;20529;-56
2024/01/08 07:55:37;;;;;;;6.10;4.30;;;-3.10;99.90;;;;;;4985905;28;20584;-57
2024/01/08 07:58:03;;;;;;;8.03;5.00;;;-3.10;99.90;;;;;;4986098;28;20693;-56
2024/01/08 08:00:28;;;;;;;8.00;4.63;;;-3.10;99.90;;;;;;4984454;28;20186;-58
2024/01/08 08:02:54;;;;;;;6.53;4.33;;;-3.10;99.90;;;;;;4986001;28;20429;-58
2024/01/08 08:05:20;;;;;;;6.97;5.00;;;-3.10;99.90;;;;;;4985668;28;20190;-58
2024/01/08 08:07:45;;;;;;;7.20;5.10;;;-3.10;99.90;;;;;;4982219;28;20210;-56
2024/01/08 08:10:11;;;;;;;5.53;4.13;;;-3.10;99.90;;;;;;4979852;28;20309;-56
2024/01/08 08:12:37;;;;;;;6.67;5.30;;;-3.10;99.90;;;;;;4987727;28;20266;-57
2024/01/08 08:15:03;;;;;;;7.20;4.83;;;-3.10;99.90;;;;;;4981849;28;20225;-58
2024/01/08 08:17:30;;;;;;;5.43;4.77;;;-3.10;99.90;;;;;;4985139;28;20284;-58
2024/01/08 08:19:56;;;;;;;6.73;4.80;;;-3.00;99.90;;;;;;4983848;28;20599;-58
2024/01/08 08:22:22;;;;;;;8.63;4.90;;;-3.00;99.90;;;;;;4985208;28;20532;-56
2024/01/08 08:24:48;;;;;;;7.40;5.00;;;-3.00;99.90;;;;;;4986689;28;20186;-58
2024/01/08 08:27:14;;;;;;;7.20;4.47;;;-2.90;99.90;;;;;;4982231;28;20198;-59
2024/01/08 08:29:41;;;;;;;8.77;4.50;;;-2.90;99.90;;;;;;4987242;28;20865;-57
2024/01/08 08:32:07;;;;;;;6.87;4.97;;;-3.00;99.90;;;;;;4984325;28;20535;-55
2024/01/08 08:34:33;;;;;;;7.83;4.77;;;-3.00;99.90;;;;;;4986860;28;20414;-57
2024/01/08 08:36:59;;;;;;;6.33;5.40;;;-3.00;99.90;;;;;;4980918;28;20465;-56
2024/01/08 08:39:25;;;;;;;9.50;5.60;;;-3.00;99.90;;;;;;4984350;28;20186;-57
2024/01/08 08:41:50;;;;;;;9.00;5.47;;;-3.00;99.90;;;;;;4981982;28;20186;-58
2024/01/08 08:44:17;;;;;;;6.67;5.30;;;-3.00;99.90;;;;;;4982043;28;20183;-57
2024/01/08 08:46:44;;;;;;;7.10;5.23;;;-2.90;99.90;;;;;;4984568;28;20264;-58
2024/01/08 08:49:10;;;;;;;9.53;5.50;;;-3.00;99.90;;;;;;4985084;28;20493;-57
2024/01/08 08:51:36;;;;;;;6.93;5.60;;;-2.90;99.90;;;;;;4983645;28;20439;-58
2024/01/08 08:54:04;;;;;;;9.53;5.47;;;-2.90;99.90;;;;;;4987618;28;20436;-58
2024/01/08 08:56:33;;;;;;;21.53;6.03;;;-2.90;99.90;;;;;;4984556;28;20537;-57
2024/01/08 08:59:00;;;;;;;10.27;4.90;;;-2.90;99.90;;;;;;4984389;28;20477;-58
2024/01/08 09:01:26;;;;;;;9.40;5.57;;;-2.90;99.90;;;;;;4985951;28;20444;-56
2024/01/08 09:03:52;;;;;;;9.20;5.57;;;-2.90;99.90;;;;;;4985843;28;20434;-58
2024/01/08 09:06:20;;;;;;;7.03;5.17;;;-2.90;99.90;;;;;;4986744;28;20448;-58
2024/01/08 09:08:47;;;;;;;7.07;5.20;;;-2.80;99.90;;;;;;4985685;28;20179;-58
2024/01/08 09:11:13;;;;;;;7.53;5.00;;;-2.80;99.90;;;;;;4987062;28;20441;-59
2024/01/08 09:13:38;;;;;;;7.10;5.10;;;-2.80;99.90;;;;;;4984082;28;20532;-58
2024/01/08 09:16:04;;;;;;;8.67;5.00;;;-2.80;99.90;;;;;;4989324;28;20445;-58
2024/01/08 09:18:30;;;;;;;8.03;4.73;;;-2.80;99.90;;;;;;4990801;28;20198;-58
2024/01/08 09:20:55;;;;;;;9.30;5.17;;;-2.80;99.90;;;;;;4987082;28;20177;-58
2024/01/08 09:23:21;;;;;;;8.97;5.53;;;-2.80;99.90;;;;;;4984716;28;20892;-57
2024/01/08 09:25:47;;;;;;;7.03;5.20;;;-2.80;99.90;;;;;;4984232;28;20258;-57
2024/01/08 09:28:13;;;;;;;8.10;5.40;;;-2.80;99.90;;;;;;4987404;28;21012;-56
2024/01/08 09:30:38;;;;;;;6.77;4.77;;;-2.90;99.90;;;;;;4987662;28;20186;-57
2024/01/08 09:33:04;;;;;;;9.10;5.37;;;-2.80;99.90;;;;;;4987265;28;20233;-56
2024/01/08 09:35:29;;;;;;;7.57;4.90;;;-2.80;99.90;;;;;;4987108;28;20196;-55
2024/01/08 09:37:55;;;;;;;8.73;5.63;;;-2.80;99.90;;;;;;4990234;28;20218;-56
2024/01/08 09:40:21;;;;;;;8.93;5.47;;;-2.80;99.90;;;;;;4989139;28;20175;-57
2024/01/08 09:42:51;;;;;;;9.37;5.27;;;-2.80;99.90;;;;;;4986359;28;20190;-58
2024/01/08 09:45:22;;;;;;;9.10;5.60;;;-2.80;99.90;;;;;;4988207;28;20202;-57
2024/01/08 09:47:49;;;;;;;8.03;6.20;;;-2.80;99.90;;;;;;4988270;28;20552;-58
2024/01/08 09:50:16;;;;;;;8.47;5.80;;;-2.80;99.90;;;;;;4986013;28;20454;-58
2024/01/08 09:52:43;;;;;;;7.77;5.67;;;-2.70;99.90;;;;;;4989638;28;20417;-57
2024/01/08 09:55:12;;;;;;;9.07;5.60;;;-2.80;99.90;;;;;;4988367;28;20457;-58
2024/01/08 09:57:38;;;;;;;9.50;5.93;;;-2.80;99.90;;;;;;4980862;28;20465;-57
2024/01/08 10:00:05;;;;;;;11.97;6.13;;;-2.80;99.90;;;;;;4990244;28;20422;-58
2024/01/08 10:02:31;;;;;;;11.87;5.93;;;-2.70;99.90;;;;;;4989374;28;20409;-58
2024/01/08 10:04:57;;;;;;;8.20;5.50;;;-2.70;99.90;;;;;;4983450;28;20465;-57
2024/01/08 10:07:24;;;;;;;9.97;6.20;;;-2.70;99.90;;;;;;4982975;28;20308;-57
2024/01/08 10:09:50;;;;;;;12.20;6.00;;;-2.60;99.90;;;;;;4986900;28;20453;-58
2024/01/08 10:12:17;;;;;;;10.20;6.13;;;-2.60;99.90;;;;;;4987993;28;20449;-58
2024/01/08 10:14:43;;;;;;;9.50;5.97;;;-2.60;99.90;;;;;;4984888;28;20507;-57
2024/01/08 10:17:08;;;;;;;9.27;6.00;;;-2.60;99.90;;;;;;4982043;28;20441;-56
2024/01/08 10:19:34;;;;;;;7.67;5.43;;;-2.60;99.90;;;;;;4988402;28;20605;-57
2024/01/08 10:22:06;;;;;;;11.70;6.07;;;-2.60;99.90;;;;;;4989446;28;20638;-56
2024/01/08 10:24:31;;;;;;;9.33;5.40;;;-2.60;99.90;;;;;;4988913;28;20245;-57
2024/01/08 10:26:57;;;;;;;8.97;5.97;;;-2.60;99.90;;;;;;4985039;28;20869;-58
2024/01/08 10:29:24;;;;;;;8.73;5.70;;;-2.60;99.90;;;;;;4985679;28;20182;-57
2024/01/08 10:31:50;;;;;;;9.83;6.10;;;-2.60;99.90;;;;;;4985934;28;20533;-57
2024/01/08 10:34:16;;;;;;;10.90;6.67;;;-2.60;99.90;;;;;;4986813;28;20884;-58
2024/01/08 10:36:43;;;;;;;11.13;6.07;;;-2.60;99.90;;;;;;4988032;28;20729;-57
2024/01/08 10:39:09;;;;;;;9.13;5.83;;;-2.60;99.90;;;;;;4980503;28;20468;-54
2024/01/08 10:41:36;;;;;;;8.33;5.10;;;-2.60;99.90;;;;;;4984464;28;20434;-55
2024/01/08 10:44:03;;;;;;;11.60;6.00;;;-2.60;99.90;;;;;;4984098;28;20879;-57
2024/01/08 10:46:36;;;;;;;10.50;6.30;;;-2.60;99.90;;;;;;4985216;28;20461;-56
2024/01/08 10:49:04;;;;;;;13.57;7.03;;;-2.60;99.90;;;;;;4985547;28;20812;-56
2024/01/08 10:51:32;;;;;;;10.50;6.00;;;-2.60;99.90;;;;;;4987910;28;20430;-56
2024/01/08 10:53:58;;;;;;;8.83;6.23;;;-2.60;99.90;;;;;;4983489;28;20417;-55
2024/01/08 10:56:27;;;;;;;8.23;5.83;;;-2.60;99.90;;;;;;4984267;28;20611;-57
2024/01/08 10:59:06;;;;;;;15.77;6.63;;;-2.60;99.90;;;;;;4985665;28;20223;-57
2024/01/08 11:01:33;;;;;;;12.40;6.77;;;-2.60;99.90;;;;;;4985447;28;20425;-56
2024/01/08 11:04:05;;;;;;;10.20;6.70;;;-2.60;99.90;;;;;;4978967;28;20436;-55
2024/01/08 11:06:36;;;;;;;10.77;6.80;;;-2.60;99.90;;;;;;4982514;28;20445;-58
2024/01/08 11:09:02;;;;;;;12.43;6.40;;;-2.60;99.90;;;;;;4982629;28;20516;-58
2024/01/08 11:11:28;;;;;;;10.30;6.47;;;-2.50;99.90;;;;;;4985828;28;20422;-57
2024/01/08 11:14:13;;;;;;;9.43;6.60;;;-2.50;99.90;;;;;;4985563;28;20551;-56
2024/01/08 11:16:40;;;;;;;10.10;6.33;;;-2.60;99.90;;;;;;4986591;28;20202;-57
2024/01/08 11:19:17;;;;;;;10.13;6.80;;;-2.60;99.90;;;;;;4983644;28;20496;-57
2024/01/08 11:21:43;;;;;;;11.17;6.30;;;-2.60;99.90;;;;;;4983722;28;20483;-58
2024/01/08 11:24:09;;;;;;;10.43;6.47;;;-2.50;99.90;;;;;;4986605;28;20865;-56
2024/01/08 11:26:43;;;;;;;11.83;6.77;;;-2.50;99.90;;;;;;4984705;28;20429;-58
2024/01/08 11:29:09;;;;;;;9.60;6.50;;;-2.50;99.90;;;;;;4984831;28;20524;-56
2024/01/08 11:31:49;;;;;;;12.10;7.07;;;-2.50;99.90;;;;;;4986587;28;20501;-58
2024/01/08 11:34:52;;;;;;;10.93;6.53;;;-2.50;99.90;;;;;;4984232;28;20430;-58
2024/01/08 11:37:34;;;;;;;10.10;6.40;;;-2.50;99.90;;;;;;4982084;28;20436;-59
2024/01/08 11:40:02;;;;;;;9.70;5.90;;;-2.50;99.90;;;;;;4982465;28;20430;-59
2024/01/08 11:42:29;;;;;;;15.13;6.60;;;-2.40;99.90;;;;;;4985441;28;20493;-58
2024/01/08 11:45:00;;;;;;;8.30;5.97;;;-2.40;99.90;;;;;;4987588;28;20419;-59
2024/01/08 11:47:26;;;;;;;12.67;6.33;;;-2.40;99.90;;;;;;4974326;28;20431;-60
2024/01/08 11:49:51;;;;;;;9.40;5.80;;;-2.40;99.90;;;;;;4993452;28;20434;-59
2024/01/08 11:52:19;;;;;;;11.50;6.33;;;-2.40;99.90;;;;;;4997426;28;20178;-56
2024/01/08 11:54:48;;;;;;;8.63;6.10;;;-2.40;99.90;;;;;;4999218;28;20217;-58
2024/01/08 11:57:15;;;;;;;10.30;6.00;;;-2.40;99.90;;;;;;4993977;28;20502;-59
2024/01/08 11:59:41;;;;;;;10.30;5.80;;;-2.40;99.90;;;;;;4986521;28;20449;-59
2024/01/08 12:02:11;;;;;;;10.00;5.97;;;-2.40;99.90;;;;;;4985333;28;20982;-58
2024/01/08 12:04:36;;;;;;;9.27;6.17;;;-2.40;99.90;;;;;;4983473;28;20235;-59
2024/01/08 12:07:02;;;;;;;7.40;5.70;;;-2.40;99.90;;;;;;4978737;28;20457;-59
2024/01/08 12:09:32;;;;;;;11.00;6.50;;;-2.40;99.90;;;;;;4979394;28;20779;-59
2024/01/08 12:12:08;;;;;;;8.17;6.07;;;-2.40;99.90;;;;;;4976211;28;20486;-57
2024/01/08 12:14:35;;;;;;;9.13;6.33;;;-2.40;99.90;;;;;;4981396;28;20489;-58
2024/01/08 12:17:04;;;;;;;13.93;6.87;;;-2.40;99.90;;;;;;4980543;28;20544;-59
2024/01/08 12:19:50;;;;;;;7.83;5.20;;;-2.40;99.90;;;;;;4975003;28;20453;-51
2024/01/08 12:22:19;;;;;;;8.60;6.03;;;-2.30;99.90;;;;;;4981381;28;20430;-54
2024/01/08 12:24:55;;;;;;;11.30;6.13;;;-2.30;99.90;;;;;;4981017;28;20520;-58
2024/01/08 12:27:25;;;;;;;10.20;5.63;;;-2.30;99.90;;;;;;4983173;28;20445;-58
2024/01/08 12:29:51;;;;;;;9.20;6.00;;;-2.30;99.90;;;;;;4987624;28;20438;-58
2024/01/08 12:32:19;;;;;;;13.20;6.23;;;-2.30;99.90;;;;;;4979214;28;20960;-58
2024/01/08 12:34:45;;;;;;;8.00;6.00;;;-2.30;99.90;;;;;;4977090;28;20245;-59
2024/01/08 12:37:12;;;;;;;12.40;6.47;;;-2.30;99.90;;;;;;4987204;28;20501;-56
2024/01/08 12:39:38;;;;;;;7.70;5.20;;;-2.30;99.90;;;;;;4991296;28;20509;-57
2024/01/08 12:42:07;;;;;;;8.57;5.80;;;-2.30;99.90;;;;;;4985143;28;20435;-56